createdAt,value
2019-06-08T00:00:06.216Z,0.40
2019-06-08T00:02:38.150Z,0.50
2019-06-08T00:05:05.895Z,0.50
2019-06-08T00:07:32.377Z,0.50
2019-06-08T00:09:58.841Z,0.50
2019-06-08T00:12:27.321Z,0.50
2019-06-08T00:14:53.717Z,0.60
2019-06-08T00:17:35.823Z,0.80
2019-06-08T00:19:48.491Z,0.80
2019-06-08T00:22:15.744Z,0.70
2019-06-08T00:24:42.172Z,0.40
2019-06-08T00:27:08.871Z,0.50
2019-06-08T00:29:35.259Z,0.60
2019-06-08T00:32:01.605Z,0.70
2019-06-08T00:34:28.242Z,0.60
2019-06-08T00:36:55.635Z,0.60
2019-06-08T00:39:22.990Z,0.40
2019-06-08T00:41:49.397Z,0.60
2019-06-08T00:44:28.714Z,0.50
2019-06-08T00:46:55.065Z,0.50
2019-06-08T00:49:22.754Z,0.60
2019-06-08T00:51:49.332Z,0.50
2019-06-08T00:54:15.717Z,0.67
2019-06-08T00:56:42.137Z,0.47
2019-06-08T00:59:08.505Z,0.53
2019-06-08T01:01:35.324Z,0.80
2019-06-08T01:04:03.026Z,0.70
2019-06-08T01:06:37.403Z,0.90
2019-06-08T01:09:05.395Z,0.70
2019-06-08T01:11:33.138Z,0.93
2019-06-08T01:13:59.494Z,0.60
2019-06-08T01:16:33.697Z,0.50
2019-06-08T01:19:00.045Z,0.60
2019-06-08T01:21:27.705Z,0.57
2019-06-08T01:23:54.458Z,0.77
2019-06-08T01:26:22.252Z,0.70
2019-06-08T01:28:49.742Z,0.70
2019-06-08T01:31:16.136Z,0.80
2019-06-08T01:33:42.492Z,0.90
2019-06-08T01:36:09.279Z,0.70
2019-06-08T01:38:39.984Z,0.83
2019-06-08T01:41:06.670Z,0.80
2019-06-08T01:43:33.090Z,0.60
2019-06-08T01:45:59.348Z,0.70
2019-06-08T01:48:26.337Z,0.60
2019-06-08T01:50:52.674Z,0.50
2019-06-08T01:53:24.657Z,0.50
2019-06-08T01:55:51.097Z,0.40
2019-06-08T01:58:17.485Z,0.63
2019-06-08T02:00:45.271Z,0.80
2019-06-08T02:03:11.709Z,0.60
2019-06-08T02:05:39.854Z,0.60
2019-06-08T02:08:06.448Z,0.50
2019-06-08T02:10:33.030Z,0.60
2019-06-08T02:12:59.283Z,0.63
2019-06-08T02:15:27.189Z,0.60
2019-06-08T02:17:53.540Z,0.90
2019-06-08T02:20:20.414Z,0.50
2019-06-08T02:22:46.810Z,0.57
2019-06-08T02:25:14.825Z,0.60
2019-06-08T02:27:48.191Z,0.50
2019-06-08T02:30:15.893Z,0.60
2019-06-08T02:32:42.385Z,0.70
2019-06-08T02:35:10.398Z,0.60
2019-06-08T02:37:38.313Z,0.60
2019-06-08T02:40:05.951Z,0.80
2019-06-08T02:42:33.114Z,0.60
2019-06-08T02:45:00.551Z,0.50
2019-06-08T02:47:28.451Z,0.87
2019-06-08T02:49:55.477Z,0.50
2019-06-08T02:52:22.095Z,0.57
2019-06-08T02:54:49.029Z,0.57
2019-06-08T02:57:16.388Z,0.80
2019-06-08T02:59:43.891Z,0.70
2019-06-08T03:02:11.810Z,0.80
2019-06-08T03:04:41.262Z,0.47
2019-06-08T03:07:08.683Z,0.67
2019-06-08T03:09:41.087Z,0.60
2019-06-08T03:12:07.928Z,0.67
2019-06-08T03:14:35.507Z,0.80
2019-06-08T03:17:02.416Z,0.70
2019-06-08T03:19:28.900Z,1.00
2019-06-08T03:21:57.267Z,0.60
2019-06-08T03:24:24.620Z,0.67
2019-06-08T03:26:50.967Z,0.50
2019-06-08T03:29:17.330Z,0.40
2019-06-08T03:31:54.238Z,0.60
2019-06-08T03:34:12.014Z,0.87
2019-06-08T03:36:46.279Z,0.80
2019-06-08T03:39:07.493Z,0.70
2019-06-08T03:41:35.804Z,0.90
2019-06-08T03:44:02.794Z,0.60
2019-06-08T03:46:29.511Z,0.70
2019-06-08T03:48:55.775Z,0.60
2019-06-08T03:51:23.226Z,0.43
2019-06-08T03:53:49.809Z,0.60
2019-06-08T03:56:16.192Z,0.53
2019-06-08T03:58:44.684Z,0.60
2019-06-08T04:01:11.425Z,0.50
2019-06-08T04:03:39.807Z,0.83
2019-06-08T04:06:06.085Z,0.60
2019-06-08T04:08:32.558Z,0.60
2019-06-08T04:11:05.161Z,0.60
2019-06-08T04:13:31.645Z,0.50
2019-06-08T04:15:58.003Z,0.60
2019-06-08T04:18:24.427Z,0.80
2019-06-08T04:20:51.592Z,0.90
2019-06-08T04:23:18.083Z,0.50
2019-06-08T04:25:45.584Z,0.90
2019-06-08T04:28:12.861Z,0.60
2019-06-08T04:30:40.942Z,0.80
2019-06-08T04:33:07.530Z,0.70
2019-06-08T04:35:34.270Z,0.83
2019-06-08T04:38:00.867Z,1.03
2019-06-08T04:40:27.187Z,1.60
2019-06-08T04:42:53.532Z,1.87
2019-06-08T04:45:20.179Z,4.67
2019-06-08T04:47:50.171Z,3.37
2019-06-08T04:50:23.334Z,4.87
2019-06-08T04:52:49.711Z,4.20
2019-06-08T04:55:15.879Z,2.57
2019-06-08T04:57:43.452Z,2.13
2019-06-08T05:00:12.905Z,0.80
2019-06-08T05:02:41.473Z,0.60
2019-06-08T05:05:09.344Z,0.50
2019-06-08T05:07:35.690Z,0.70
2019-06-08T05:10:05.092Z,0.80
2019-06-08T05:12:31.483Z,0.80
2019-06-08T05:14:57.852Z,0.70
2019-06-08T05:17:24.179Z,1.03
2019-06-08T05:19:50.664Z,0.73
2019-06-08T05:22:17.486Z,0.70
2019-06-08T05:24:45.633Z,0.60
2019-06-08T05:27:12.561Z,0.97
2019-06-08T05:29:39.254Z,0.87
2019-06-08T05:32:05.989Z,2.80
2019-06-08T05:34:32.377Z,3.20
2019-06-08T05:36:58.832Z,3.83
2019-06-08T05:39:25.195Z,2.00
2019-06-08T05:41:52.051Z,3.30
2019-06-08T05:44:18.449Z,3.93
2019-06-08T05:46:45.755Z,3.80
2019-06-08T05:49:15.521Z,2.50
2019-06-08T05:51:41.821Z,1.30
2019-06-08T05:54:08.174Z,3.10
2019-06-08T05:56:34.825Z,4.23
2019-06-08T05:59:01.556Z,2.53
2019-06-08T06:01:28.052Z,2.30
2019-06-08T06:03:54.333Z,2.30
2019-06-08T06:06:20.875Z,1.30
2019-06-08T06:08:48.752Z,1.23
2019-06-08T06:11:15.123Z,1.10
2019-06-08T06:13:51.577Z,1.03
2019-06-08T06:16:18.289Z,1.30
2019-06-08T06:18:45.035Z,1.00
2019-06-08T06:21:12.411Z,1.07
2019-06-08T06:23:38.950Z,1.00
2019-06-08T06:26:05.235Z,1.60
2019-06-08T06:28:31.594Z,1.27
2019-06-08T06:30:57.970Z,0.80
2019-06-08T06:33:35.775Z,1.30
2019-06-08T06:36:02.451Z,1.37
2019-06-08T06:38:28.778Z,1.20
2019-06-08T06:40:55.065Z,1.43
2019-06-08T06:43:24.706Z,0.80
2019-06-08T06:45:52.154Z,0.90
2019-06-08T06:48:18.851Z,0.90
2019-06-08T06:50:46.253Z,0.90
2019-06-08T06:53:12.863Z,1.33
2019-06-08T06:55:39.211Z,1.20
2019-06-08T06:58:06.127Z,1.83
2019-06-08T07:00:32.587Z,1.33
2019-06-08T07:02:59.965Z,1.20
2019-06-08T07:05:26.488Z,1.10
2019-06-08T07:07:54.408Z,1.33
2019-06-08T07:10:21.913Z,1.00
2019-06-08T07:12:48.660Z,1.73
2019-06-08T07:15:18.858Z,1.90
2019-06-08T07:17:46.037Z,1.50
2019-06-08T07:20:12.704Z,1.33
2019-06-08T07:22:39.138Z,1.10
2019-06-08T07:25:05.987Z,1.00
2019-06-08T07:27:32.260Z,1.43
2019-06-08T07:29:59.022Z,1.10
2019-06-08T07:32:26.577Z,1.17
2019-06-08T07:34:53.198Z,1.53
2019-06-08T07:37:19.928Z,1.20
2019-06-08T07:39:47.178Z,1.30
2019-06-08T07:42:14.498Z,1.37
2019-06-08T07:44:43.977Z,1.47
2019-06-08T07:47:10.511Z,1.23
2019-06-08T07:49:36.855Z,1.60
2019-06-08T07:52:10.121Z,1.40
2019-06-08T07:54:31.443Z,1.03
2019-06-08T07:56:59.053Z,1.33
2019-06-08T07:59:25.518Z,1.80
2019-06-08T08:01:51.931Z,1.30
2019-06-08T08:04:18.303Z,1.20
2019-06-08T08:06:44.597Z,1.20
2019-06-08T08:09:10.972Z,1.37
2019-06-08T08:11:39.822Z,1.00
2019-06-08T08:14:06.190Z,1.37
2019-06-08T08:16:32.478Z,1.40
2019-06-08T08:18:59.707Z,1.37
2019-06-08T08:21:29.407Z,1.80
2019-06-08T08:23:59.322Z,1.33
2019-06-08T08:26:27.158Z,1.60
2019-06-08T08:28:55.250Z,1.10
2019-06-08T08:31:22.686Z,1.33
2019-06-08T08:33:50.945Z,1.10
2019-06-08T08:36:18.034Z,1.20
2019-06-08T08:38:47.712Z,1.80
2019-06-08T08:41:18.186Z,1.43
2019-06-08T08:43:44.259Z,1.87
2019-06-08T08:46:10.666Z,1.30
2019-06-08T08:48:37.745Z,1.30
2019-06-08T08:51:04.281Z,0.80
2019-06-08T08:53:37.453Z,1.40
2019-06-08T08:56:03.983Z,1.00
2019-06-08T08:58:30.359Z,1.23
2019-06-08T09:01:00.130Z,1.13
2019-06-08T09:03:29.652Z,1.23
2019-06-08T09:05:53.784Z,1.20
2019-06-08T09:08:23.338Z,1.50
2019-06-08T09:10:51.777Z,1.30
2019-06-08T09:13:18.589Z,1.10
2019-06-08T09:15:47.848Z,1.40
2019-06-08T09:18:13.410Z,1.27
2019-06-08T09:20:39.785Z,0.90
2019-06-08T09:23:14.650Z,1.20
2019-06-08T09:25:34.587Z,1.37
2019-06-08T09:28:04.661Z,0.97
2019-06-08T09:30:29.450Z,1.00
2019-06-08T09:32:59.087Z,1.13
2019-06-08T09:35:24.022Z,1.40
2019-06-08T09:37:50.358Z,1.00
2019-06-08T09:40:16.723Z,1.00
2019-06-08T09:42:43.103Z,1.13
2019-06-08T09:45:09.916Z,1.20
2019-06-08T09:47:38.090Z,1.07
2019-06-08T09:50:09.206Z,0.93
2019-06-08T09:52:40.922Z,1.13
2019-06-08T09:55:09.131Z,1.20
2019-06-08T09:57:35.479Z,1.00
2019-06-08T10:00:14.322Z,1.10
2019-06-08T10:02:34.511Z,0.90
2019-06-08T10:05:04.486Z,0.90
2019-06-08T10:07:31.342Z,0.90
2019-06-08T10:10:00.358Z,0.90
2019-06-08T10:12:28.182Z,0.77
2019-06-08T10:14:56.758Z,1.00
2019-06-08T10:17:29.309Z,1.00
2019-06-08T10:20:00.480Z,1.13
2019-06-08T10:22:28.274Z,0.87
2019-06-08T10:24:55.419Z,0.93
2019-06-08T10:27:22.941Z,0.80
2019-06-08T10:29:49.337Z,1.20
2019-06-08T10:32:18.021Z,1.00
2019-06-08T10:34:48.087Z,1.20
2019-06-08T10:37:18.698Z,1.20
2019-06-08T10:39:47.738Z,1.20
2019-06-08T10:42:14.382Z,1.30
2019-06-08T10:44:40.793Z,1.17
2019-06-08T10:47:11.573Z,1.03
2019-06-08T10:49:38.491Z,1.30
2019-06-08T10:52:09.982Z,1.10
2019-06-08T10:54:34.712Z,0.90
2019-06-08T10:57:09.836Z,1.43
2019-06-08T10:59:42.932Z,1.10
2019-06-08T11:02:13.716Z,1.27
2019-06-08T11:04:48.873Z,1.47
2019-06-08T11:07:16.325Z,0.90
2019-06-08T11:09:43.045Z,0.90
2019-06-08T11:12:14.724Z,1.63
2019-06-08T11:14:42.191Z,1.03
2019-06-08T11:17:10.982Z,1.07
2019-06-08T11:19:37.803Z,1.03
2019-06-08T11:22:11.794Z,1.13
2019-06-08T11:24:35.430Z,0.80
2019-06-08T11:27:01.686Z,1.10
2019-06-08T11:29:30.697Z,1.00
2019-06-08T11:31:58.641Z,0.77
2019-06-08T11:34:25.177Z,1.30
2019-06-08T11:36:51.884Z,1.10
2019-06-08T11:39:18.718Z,1.20
2019-06-08T11:41:45.216Z,1.10
2019-06-08T11:44:14.563Z,1.13
2019-06-08T11:46:42.564Z,1.10
2019-06-08T11:49:14.356Z,1.00
2019-06-08T11:51:37.910Z,1.40
2019-06-08T11:54:25.053Z,1.00
2019-06-08T11:56:34.608Z,0.90
2019-06-08T11:59:01.590Z,0.80
2019-06-08T12:01:27.831Z,0.90
2019-06-08T12:03:57.824Z,1.10
2019-06-08T12:06:27.772Z,1.20
2019-06-08T12:08:54.135Z,0.97
2019-06-08T12:11:23.016Z,0.67
2019-06-08T12:13:54.795Z,0.90
2019-06-08T12:16:24.841Z,1.30
2019-06-08T12:18:51.167Z,0.70
2019-06-08T12:21:18.538Z,1.00
2019-06-08T12:23:45.074Z,1.33
2019-06-08T12:26:12.265Z,1.20
2019-06-08T12:28:38.744Z,0.90
2019-06-08T12:31:05.111Z,1.10
2019-06-08T12:33:31.542Z,1.03
2019-06-08T12:35:58.028Z,0.87
2019-06-08T12:38:24.329Z,0.93
2019-06-08T12:40:50.687Z,1.00
2019-06-08T12:43:18.908Z,0.90
2019-06-08T12:45:47.234Z,0.80
2019-06-08T12:48:22.406Z,1.20
2019-06-08T12:50:44.900Z,0.90
2019-06-08T12:53:14.916Z,0.70
2019-06-08T12:55:39.699Z,0.90
2019-06-08T12:58:08.143Z,0.80
2019-06-08T13:00:34.315Z,0.90
2019-06-08T13:03:08.596Z,0.80
2019-06-08T13:05:37.803Z,0.80
2019-06-08T13:08:03.431Z,0.90
2019-06-08T13:10:29.947Z,0.93
2019-06-08T13:12:58.258Z,0.80
2019-06-08T13:15:24.643Z,0.70
2019-06-08T13:17:58.699Z,1.07
2019-06-08T13:20:25.175Z,0.70
2019-06-08T13:22:51.518Z,0.87
2019-06-08T13:25:35.511Z,0.90
2019-06-08T13:27:48.021Z,0.80
2019-06-08T13:30:19.709Z,0.90
2019-06-08T13:32:48.088Z,0.73
2019-06-08T13:35:14.392Z,0.97
2019-06-08T13:37:42.411Z,0.67
2019-06-08T13:40:13.098Z,1.73
2019-06-08T13:42:40.317Z,0.90
2019-06-08T13:45:07.629Z,0.73
2019-06-08T13:47:34.612Z,0.70
2019-06-08T13:50:01.151Z,0.70
2019-06-08T13:52:28.242Z,0.70
2019-06-08T13:54:58.197Z,0.70
2019-06-08T13:57:25.149Z,0.70
2019-06-08T13:59:51.792Z,0.83
2019-06-08T14:02:28.027Z,1.10
2019-06-08T14:04:50.784Z,1.00
2019-06-08T14:07:26.868Z,0.80
2019-06-08T14:09:49.187Z,0.80
2019-06-08T14:12:18.233Z,0.60
2019-06-08T14:14:43.799Z,1.10
2019-06-08T14:17:10.176Z,0.60
2019-06-08T14:19:38.548Z,0.73
2019-06-08T14:22:04.936Z,0.90
2019-06-08T14:24:34.467Z,0.97
2019-06-08T14:27:00.941Z,0.77
2019-06-08T14:29:28.896Z,0.80
2019-06-08T14:31:57.741Z,0.70
2019-06-08T14:34:31.369Z,0.90
2019-06-08T14:36:59.208Z,1.00
2019-06-08T14:39:28.891Z,0.80
2019-06-08T14:42:01.960Z,0.70
2019-06-08T14:44:32.116Z,0.90
2019-06-08T14:46:57.915Z,0.63
2019-06-08T14:49:29.640Z,0.60
2019-06-08T14:51:52.951Z,0.70
2019-06-08T14:54:24.359Z,0.70
2019-06-08T14:56:49.876Z,0.77
2019-06-08T14:59:18.346Z,0.87
2019-06-08T15:01:44.543Z,0.80
2019-06-08T15:04:10.908Z,0.60
2019-06-08T15:06:38.200Z,0.60
2019-06-08T15:09:05.819Z,0.50
2019-06-08T15:11:38.093Z,0.90
2019-06-08T15:14:05.049Z,0.60
2019-06-08T15:16:32.865Z,0.70
2019-06-08T15:19:00.311Z,0.70
2019-06-08T15:21:30.130Z,0.70
2019-06-08T15:23:57.759Z,0.50
2019-06-08T15:26:32.781Z,0.60
2019-06-08T15:28:52.611Z,0.40
2019-06-08T15:31:18.864Z,0.60
2019-06-08T15:33:45.416Z,0.70
2019-06-08T15:36:11.905Z,0.47
2019-06-08T15:38:38.595Z,0.57
2019-06-08T15:41:04.863Z,0.67
2019-06-08T15:43:36.298Z,0.53
2019-06-08T15:45:59.837Z,0.50
2019-06-08T15:48:29.024Z,0.60
2019-06-08T15:50:54.856Z,0.60
2019-06-08T15:53:22.287Z,0.40
2019-06-08T15:55:53.137Z,0.40
2019-06-08T15:58:27.456Z,0.50
2019-06-08T16:00:55.617Z,0.50
2019-06-08T16:03:25.294Z,0.50
2019-06-08T16:05:52.690Z,0.50
2019-06-08T16:08:19.124Z,0.30
2019-06-08T16:10:48.175Z,0.70
2019-06-08T16:13:20.013Z,0.50
2019-06-08T16:15:47.820Z,0.77
2019-06-08T16:18:15.209Z,0.60
2019-06-08T16:20:47.862Z,0.60
2019-06-08T16:23:19.802Z,0.53
2019-06-08T16:25:46.257Z,0.60
2019-06-08T16:28:13.907Z,0.50
2019-06-08T16:30:41.978Z,0.80
2019-06-08T16:33:08.386Z,0.80
2019-06-08T16:35:35.740Z,0.67
2019-06-08T16:38:08.213Z,0.40
2019-06-08T16:40:36.260Z,0.60
2019-06-08T16:43:03.040Z,0.70
2019-06-08T16:45:31.010Z,0.53
2019-06-08T16:47:57.576Z,0.60
2019-06-08T16:50:26.447Z,0.60
2019-06-08T16:52:59.522Z,0.50
2019-06-08T16:55:25.823Z,0.53
2019-06-08T16:57:59.127Z,0.50
2019-06-08T17:00:37.158Z,0.70
2019-06-08T17:02:54.882Z,0.60
2019-06-08T17:05:24.812Z,0.73
2019-06-08T17:07:52.235Z,0.60
2019-06-08T17:10:21.543Z,0.60
2019-06-08T17:12:49.033Z,0.60
2019-06-08T17:15:16.032Z,0.80
2019-06-08T17:17:47.651Z,0.50
2019-06-08T17:20:17.354Z,0.70
2019-06-08T17:22:44.206Z,0.60
2019-06-08T17:25:11.374Z,0.70
2019-06-08T17:27:40.811Z,0.57
2019-06-08T17:30:08.717Z,0.67
2019-06-08T17:32:35.907Z,0.60
2019-06-08T17:35:05.276Z,0.87
2019-06-08T17:37:38.114Z,0.50
2019-06-08T17:40:05.385Z,0.70
2019-06-08T17:42:32.099Z,0.70
2019-06-08T17:45:07.209Z,0.70
2019-06-08T17:47:34.297Z,0.90
2019-06-08T17:50:04.576Z,1.00
2019-06-08T17:52:43.031Z,0.80
2019-06-08T17:55:09.999Z,0.80
2019-06-08T17:57:44.770Z,0.93
2019-06-08T18:00:06.862Z,0.87
2019-06-08T18:02:34.062Z,0.80
2019-06-08T18:05:00.500Z,0.70
2019-06-08T18:07:27.736Z,0.60
2019-06-08T18:09:54.272Z,0.80
2019-06-08T18:12:20.613Z,0.80
2019-06-08T18:14:47.981Z,0.90
2019-06-08T18:17:14.770Z,1.00
2019-06-08T18:19:45.976Z,0.73
2019-06-08T18:22:15.416Z,0.73
2019-06-08T18:24:40.849Z,1.00
2019-06-08T18:27:07.829Z,1.10
2019-06-08T18:29:34.567Z,0.70
2019-06-08T18:32:08.148Z,1.10
2019-06-08T18:34:40.691Z,0.87
2019-06-08T18:37:12.326Z,1.20
2019-06-08T18:39:41.181Z,0.83
2019-06-08T18:42:13.009Z,0.87
2019-06-08T18:44:49.940Z,1.20
2019-06-08T18:47:17.808Z,1.00
2019-06-08T18:49:44.494Z,1.13
2019-06-08T18:52:12.062Z,0.90
2019-06-08T18:54:41.082Z,0.70
2019-06-08T18:57:08.945Z,1.00
2019-06-08T18:59:37.553Z,1.03
2019-06-08T19:02:04.418Z,0.70
2019-06-08T19:04:31.160Z,1.07
2019-06-08T19:07:01.323Z,0.63
2019-06-08T19:09:28.059Z,0.70
2019-06-08T19:11:57.629Z,0.73
2019-06-08T19:14:28.414Z,0.80
2019-06-08T19:16:54.785Z,0.90
2019-06-08T19:19:21.374Z,0.73
2019-06-08T19:21:50.432Z,0.80
2019-06-08T19:24:18.177Z,0.90
2019-06-08T19:26:45.953Z,0.90
2019-06-08T19:29:13.465Z,0.87
2019-06-08T19:31:42.282Z,0.90
2019-06-08T19:34:10.554Z,0.90
2019-06-08T19:36:39.773Z,0.90
2019-06-08T19:39:07.146Z,0.80
2019-06-08T19:41:33.882Z,0.80
2019-06-08T19:44:01.290Z,0.60
2019-06-08T19:46:29.154Z,0.90
2019-06-08T19:49:01.558Z,0.90
2019-06-08T19:51:28.282Z,0.67
2019-06-08T19:54:00.878Z,0.73
2019-06-08T19:56:28.629Z,0.70
2019-06-08T19:59:01.734Z,0.80
2019-06-08T20:01:23.756Z,0.60
2019-06-08T20:03:50.262Z,1.00
2019-06-08T20:06:17.538Z,0.63
2019-06-08T20:08:49.745Z,1.10
2019-06-08T20:11:17.297Z,0.83
2019-06-08T20:13:57.399Z,0.60
2019-06-08T20:16:27.722Z,0.60
2019-06-08T20:18:54.716Z,0.80
2019-06-08T20:21:32.452Z,0.63
2019-06-08T20:23:58.915Z,0.67
2019-06-08T20:26:28.762Z,0.67
2019-06-08T20:29:12.169Z,0.60
2019-06-08T20:31:30.474Z,0.73
2019-06-08T20:33:57.628Z,0.57
2019-06-08T20:36:24.440Z,0.37
2019-06-08T20:38:50.967Z,0.60
2019-06-08T20:41:18.313Z,0.60
2019-06-08T20:43:47.750Z,0.60
2019-06-08T20:46:13.038Z,0.60
2019-06-08T20:48:42.104Z,0.50
2019-06-08T20:51:10.720Z,0.60
2019-06-08T20:53:38.805Z,0.70
2019-06-08T20:56:07.969Z,0.50
2019-06-08T20:58:37.157Z,0.50
2019-06-08T21:01:03.785Z,0.40
2019-06-08T21:03:31.146Z,0.63
2019-06-08T21:05:58.228Z,0.70
2019-06-08T21:08:24.843Z,0.50
2019-06-08T21:10:54.077Z,0.70
2019-06-08T21:13:27.352Z,1.00
2019-06-08T21:15:57.113Z,0.90
2019-06-08T21:18:23.174Z,0.93
2019-06-08T21:20:51.102Z,0.80
2019-06-08T21:23:18.610Z,0.60
2019-06-08T21:25:46.284Z,0.90
2019-06-08T21:28:13.851Z,0.80
2019-06-08T21:30:40.352Z,0.60
2019-06-08T21:33:08.724Z,1.00
2019-06-08T21:35:35.056Z,1.10
2019-06-08T21:38:20.350Z,0.73
2019-06-08T21:40:33.296Z,0.60
2019-06-08T21:43:01.559Z,0.90
2019-06-08T21:45:29.550Z,0.60
2019-06-08T21:47:59.006Z,0.73
2019-06-08T21:50:24.258Z,1.00
2019-06-08T21:52:51.922Z,0.80
2019-06-08T21:55:18.802Z,0.80
2019-06-08T21:57:48.273Z,0.70
2019-06-08T22:00:35.884Z,0.70
2019-06-08T22:02:51.772Z,0.67
2019-06-08T22:05:22.485Z,0.60
2019-06-08T22:07:49.973Z,0.80
2019-06-08T22:10:18.011Z,0.80
2019-06-08T22:12:44.527Z,0.70
2019-06-08T22:15:27.223Z,0.77
2019-06-08T22:17:54.813Z,0.80
2019-06-08T22:20:22.626Z,0.87
2019-06-08T22:22:58.083Z,0.93
2019-06-08T22:25:23.741Z,0.80
2019-06-08T22:27:51.069Z,1.00
2019-06-08T22:30:35.410Z,0.87
2019-06-08T22:32:52.774Z,1.00
2019-06-08T22:35:20.164Z,1.00
2019-06-08T22:37:48.042Z,0.80
2019-06-08T22:40:17.414Z,1.40
2019-06-08T22:42:43.169Z,0.60
2019-06-08T22:45:09.845Z,0.93
2019-06-08T22:47:38.486Z,0.70
2019-06-08T22:50:07.776Z,0.80
2019-06-08T22:52:33.671Z,1.30
2019-06-08T22:55:04.847Z,1.00
2019-06-08T22:57:28.075Z,0.93
2019-06-08T22:59:55.769Z,0.90
2019-06-08T23:02:23.043Z,0.93
2019-06-08T23:04:49.793Z,0.90
2019-06-08T23:07:26.618Z,0.90
2019-06-08T23:09:45.006Z,0.70
2019-06-08T23:12:11.477Z,0.80
2019-06-08T23:14:38.123Z,1.00
2019-06-08T23:17:05.466Z,1.00
2019-06-08T23:19:33.222Z,1.10
2019-06-08T23:22:06.160Z,0.70
2019-06-08T23:24:33.334Z,1.07
2019-06-08T23:27:00.050Z,1.33
2019-06-08T23:29:27.842Z,1.00
2019-06-08T23:31:54.497Z,0.77
2019-06-08T23:34:23.230Z,0.80
2019-06-08T23:36:58.555Z,1.00
2019-06-08T23:39:18.287Z,0.80
2019-06-08T23:41:45.018Z,0.93
2019-06-08T23:44:11.306Z,1.07
2019-06-08T23:46:38.113Z,1.00
2019-06-08T23:49:06.154Z,1.10
2019-06-08T23:51:32.943Z,0.70
2019-06-08T23:54:03.802Z,1.17
2019-06-08T23:56:29.920Z,0.70
2019-06-08T23:59:03.720Z,0.90
